sensor_id;sensor_type;location;lat;lon;timestamp;pressure;altitude;pressure_sealevel;temperature;humidity
21730;BME280;11027;51.030;13.812;2023-05-06T00:01:57;100161.50;;;16.92;68.14
21730;BME280;11027;51.030;13.812;2023-05-06T00:04:22;100165.13;;;16.86;68.63
21730;BME280;11027;51.030;13.812;2023-05-06T00:06:47;100156.25;;;16.84;69.49
21730;BME280;11027;51.030;13.812;2023-05-06T00:09:13;100157.75;;;16.80;70.54
21730;BME280;11027;51.030;13.812;2023-05-06T00:11:38;100155.88;;;16.74;70.46
21730;BME280;11027;51.030;13.812;2023-05-06T00:14:03;100152.09;;;16.68;70.63
21730;BME280;11027;51.030;13.812;2023-05-06T00:16:29;100146.22;;;16.65;71.10
21730;BME280;11027;51.030;13.812;2023-05-06T00:18:54;100137.16;;;16.57;71.20
21730;BME280;11027;51.030;13.812;2023-05-06T00:21:19;100142.25;;;16.54;71.14
21730;BME280;11027;51.030;13.812;2023-05-06T00:23:45;100137.00;;;16.52;71.82
21730;BME280;11027;51.030;13.812;2023-05-06T00:26:10;100136.38;;;16.50;72.13
21730;BME280;11027;51.030;13.812;2023-05-06T00:28:35;100121.53;;;16.51;72.35
21730;BME280;11027;51.030;13.812;2023-05-06T00:31:00;100128.53;;;16.47;72.42
21730;BME280;11027;51.030;13.812;2023-05-06T00:33:26;100126.00;;;16.46;72.78
21730;BME280;11027;51.030;13.812;2023-05-06T00:35:51;100125.63;;;16.42;73.15
21730;BME280;11027;51.030;13.812;2023-05-06T00:38:17;100122.69;;;16.37;72.93
21730;BME280;11027;51.030;13.812;2023-05-06T00:40:43;100118.06;;;16.31;73.23
21730;BME280;11027;51.030;13.812;2023-05-06T00:43:08;100129.31;;;16.23;73.44
21730;BME280;11027;51.030;13.812;2023-05-06T00:45:34;100120.25;;;16.15;73.75
21730;BME280;11027;51.030;13.812;2023-05-06T00:47:59;100120.25;;;16.15;74.32
21730;BME280;11027;51.030;13.812;2023-05-06T00:50:25;100119.00;;;16.11;74.05
21730;BME280;11027;51.030;13.812;2023-05-06T00:52:52;100122.41;;;16.07;74.15
21730;BME280;11027;51.030;13.812;2023-05-06T00:55:19;100122.00;;;16.03;74.75
21730;BME280;11027;51.030;13.812;2023-05-06T00:57:45;100132.97;;;16.03;74.87
21730;BME280;11027;51.030;13.812;2023-05-06T01:00:13;100129.59;;;16.01;75.38
21730;BME280;11027;51.030;13.812;2023-05-06T01:02:39;100114.19;;;16.00;75.48
21730;BME280;11027;51.030;13.812;2023-05-06T01:05:05;100111.63;;;16.05;75.70
21730;BME280;11027;51.030;13.812;2023-05-06T01:10:37;100111.63;;;16.05;76.38
21730;BME280;11027;51.030;13.812;2023-05-06T01:13:08;100103.16;;;16.07;76.51
21730;BME280;11027;51.030;13.812;2023-05-06T01:15:46;100105.09;;;16.06;76.85
21730;BME280;11027;51.030;13.812;2023-05-06T01:18:19;100098.75;;;15.99;77.04
21730;BME280;11027;51.030;13.812;2023-05-06T01:20:48;100100.91;;;15.90;77.40
21730;BME280;11027;51.030;13.812;2023-05-06T01:23:17;100105.19;;;15.79;77.71
21730;BME280;11027;51.030;13.812;2023-05-06T01:25:42;100099.25;;;15.69;78.09
21730;BME280;11027;51.030;13.812;2023-05-06T01:28:09;100104.13;;;15.60;78.60
21730;BME280;11027;51.030;13.812;2023-05-06T01:30:45;100109.84;;;15.59;79.36
21730;BME280;11027;51.030;13.812;2023-05-06T01:35:53;100113.88;;;15.50;78.96
21730;BME280;11027;51.030;13.812;2023-05-06T01:40:54;100128.47;;;15.44;79.12
21730;BME280;11027;51.030;13.812;2023-05-06T01:43:22;100128.03;;;15.40;78.88
21730;BME280;11027;51.030;13.812;2023-05-06T01:45:50;100122.56;;;15.40;79.06
21730;BME280;11027;51.030;13.812;2023-05-06T01:48:21;100119.78;;;15.47;78.80
21730;BME280;11027;51.030;13.812;2023-05-06T01:50:46;100118.31;;;15.51;78.59
21730;BME280;11027;51.030;13.812;2023-05-06T01:53:12;100118.72;;;15.54;78.67
21730;BME280;11027;51.030;13.812;2023-05-06T01:55:37;100117.44;;;15.57;79.06
21730;BME280;11027;51.030;13.812;2023-05-06T01:58:02;100112.38;;;15.60;78.82
21730;BME280;11027;51.030;13.812;2023-05-06T02:00:27;100121.69;;;15.59;78.58
21730;BME280;11027;51.030;13.812;2023-05-06T02:02:53;100105.41;;;15.58;78.81
21730;BME280;11027;51.030;13.812;2023-05-06T02:05:18;100106.06;;;15.60;78.54
21730;BME280;11027;51.030;13.812;2023-05-06T02:07:43;100106.69;;;15.62;78.77
21730;BME280;11027;51.030;13.812;2023-05-06T02:10:09;100104.34;;;15.59;78.86
21730;BME280;11027;51.030;13.812;2023-05-06T02:12:35;100102.69;;;15.58;79.43
21730;BME280;11027;51.030;13.812;2023-05-06T02:15:00;100092.75;;;15.57;79.71
21730;BME280;11027;51.030;13.812;2023-05-06T02:17:25;100094.22;;;15.53;79.95
21730;BME280;11027;51.030;13.812;2023-05-06T02:19:50;100084.97;;;15.47;80.01
21730;BME280;11027;51.030;13.812;2023-05-06T02:22:16;100082.44;;;15.46;80.29
21730;BME280;11027;51.030;13.812;2023-05-06T02:24:41;100080.31;;;15.48;80.47
21730;BME280;11027;51.030;13.812;2023-05-06T02:27:06;100074.81;;;15.48;80.38
21730;BME280;11027;51.030;13.812;2023-05-06T02:29:32;100071.47;;;15.46;80.91
21730;BME280;11027;51.030;13.812;2023-05-06T02:31:57;100068.91;;;15.44;80.55
21730;BME280;11027;51.030;13.812;2023-05-06T02:34:22;100060.06;;;15.35;80.79
21730;BME280;11027;51.030;13.812;2023-05-06T02:36:48;100058.59;;;15.33;81.19
21730;BME280;11027;51.030;13.812;2023-05-06T02:39:13;100063.44;;;15.31;81.59
21730;BME280;11027;51.030;13.812;2023-05-06T02:41:38;100054.81;;;15.27;81.47
21730;BME280;11027;51.030;13.812;2023-05-06T02:44:03;100063.06;;;15.27;81.73
21730;BME280;11027;51.030;13.812;2023-05-06T02:46:29;100054.41;;;15.24;81.99
21730;BME280;11027;51.030;13.812;2023-05-06T02:48:54;100049.34;;;15.27;81.70
21730;BME280;11027;51.030;13.812;2023-05-06T02:51:19;100051.63;;;15.30;81.35
21730;BME280;11027;51.030;13.812;2023-05-06T02:53:45;100056.69;;;15.33;81.34
21730;BME280;11027;51.030;13.812;2023-05-06T02:56:10;100044.84;;;15.33;81.59
21730;BME280;11027;51.030;13.812;2023-05-06T02:58:35;100041.47;;;15.31;81.44
21730;BME280;11027;51.030;13.812;2023-05-06T03:01:00;100041.47;;;15.31;81.46
21730;BME280;11027;51.030;13.812;2023-05-06T03:03:26;100033.50;;;15.29;81.75
21730;BME280;11027;51.030;13.812;2023-05-06T03:05:51;100043.41;;;15.30;81.99
21730;BME280;11027;51.030;13.812;2023-05-06T03:08:16;100053.34;;;15.31;82.61
21730;BME280;11027;51.030;13.812;2023-05-06T03:10:41;100047.84;;;15.31;82.42
21730;BME280;11027;51.030;13.812;2023-05-06T03:13:07;100044.03;;;15.32;82.49
21730;BME280;11027;51.030;13.812;2023-05-06T03:15:32;100043.41;;;15.30;82.46
21730;BME280;11027;51.030;13.812;2023-05-06T03:17:57;100051.00;;;15.28;82.79
21730;BME280;11027;51.030;13.812;2023-05-06T03:20:22;100061.34;;;15.26;82.54
21730;BME280;11027;51.030;13.812;2023-05-06T03:22:48;100063.88;;;15.28;82.72
21730;BME280;11027;51.030;13.812;2023-05-06T03:25:14;100070.66;;;15.25;82.72
21730;BME280;11027;51.030;13.812;2023-05-06T03:27:39;100076.78;;;15.27;83.20
21730;BME280;11027;51.030;13.812;2023-05-06T03:30:05;100074.03;;;15.27;82.89
21730;BME280;11027;51.030;13.812;2023-05-06T03:32:30;100064.72;;;15.28;82.91
21730;BME280;11027;51.030;13.812;2023-05-06T03:34:55;100072.31;;;15.26;82.85
21730;BME280;11027;51.030;13.812;2023-05-06T03:37:21;100071.06;;;15.22;82.99
21730;BME280;11027;51.030;13.812;2023-05-06T03:39:46;100065.59;;;15.22;83.03
21730;BME280;11027;51.030;13.812;2023-05-06T03:42:11;100066.03;;;15.19;83.52
21730;BME280;11027;51.030;13.812;2023-05-06T03:44:37;100060.28;;;15.20;83.40
21730;BME280;11027;51.030;13.812;2023-05-06T03:47:02;100058.41;;;15.21;83.65
21730;BME280;11027;51.030;13.812;2023-05-06T03:49:27;100063.91;;;15.21;83.45
21730;BME280;11027;51.030;13.812;2023-05-06T03:51:52;100064.75;;;15.22;83.73
21730;BME280;11027;51.030;13.812;2023-05-06T03:54:18;100067.91;;;15.25;83.76
21730;BME280;11027;51.030;13.812;2023-05-06T03:56:43;100065.78;;;15.27;83.07
21730;BME280;11027;51.030;13.812;2023-05-06T03:59:08;100063.06;;;15.27;83.13
21730;BME280;11027;51.030;13.812;2023-05-06T04:01:33;100057.56;;;15.27;83.32
21730;BME280;11027;51.030;13.812;2023-05-06T04:03:59;100057.13;;;15.30;83.31
21730;BME280;11027;51.030;13.812;2023-05-06T04:06:24;100067.25;;;15.30;83.00
21730;BME280;11027;51.030;13.812;2023-05-06T04:08:50;100064.72;;;15.28;83.38
21730;BME280;11027;51.030;13.812;2023-05-06T04:11:16;100059.22;;;15.28;83.14
21730;BME280;11027;51.030;13.812;2023-05-06T04:13:41;100059.22;;;15.28;83.11
21730;BME280;11027;51.030;13.812;2023-05-06T04:16:06;100076.53;;;15.29;83.59
21730;BME280;11027;51.030;13.812;2023-05-06T04:18:31;100068.94;;;15.24;84.08
21730;BME280;11027;51.030;13.812;2023-05-06T04:20:58;100072.13;;;15.21;84.34
21730;BME280;11027;51.030;13.812;2023-05-06T04:23:24;100068.53;;;15.14;84.59
21730;BME280;11027;51.030;13.812;2023-05-06T04:25:49;100077.00;;;15.06;84.57
21730;BME280;11027;51.030;13.812;2023-05-06T04:28:15;100077.84;;;14.99;84.49
21730;BME280;11027;51.030;13.812;2023-05-06T04:30:44;100078.25;;;14.96;84.73
21730;BME280;11027;51.030;13.812;2023-05-06T04:33:10;100089.66;;;14.93;84.49
21730;BME280;11027;51.030;13.812;2023-05-06T04:35:36;100089.66;;;14.93;84.36
21730;BME280;11027;51.030;13.812;2023-05-06T04:38:01;100084.38;;;14.92;84.50
21730;BME280;11027;51.030;13.812;2023-05-06T04:40:27;100090.06;;;14.90;84.12
21730;BME280;11027;51.030;13.812;2023-05-06T04:42:52;100092.63;;;14.92;84.19
21730;BME280;11027;51.030;13.812;2023-05-06T04:45:18;100096.81;;;14.94;84.13
21730;BME280;11027;51.030;13.812;2023-05-06T04:47:43;100097.47;;;14.96;84.01
21730;BME280;11027;51.030;13.812;2023-05-06T04:50:09;100098.97;;;14.99;83.96
21730;BME280;11027;51.030;13.812;2023-05-06T04:52:34;100101.06;;;14.97;83.68
21730;BME280;11027;51.030;13.812;2023-05-06T04:55:00;100096.81;;;14.94;83.73
21730;BME280;11027;51.030;13.812;2023-05-06T04:57:26;100107.81;;;15.01;83.94
21730;BME280;11027;51.030;13.812;2023-05-06T04:59:51;100112.03;;;15.10;84.00
21730;BME280;11027;51.030;13.812;2023-05-06T05:02:17;100112.44;;;15.14;83.67
21730;BME280;11027;51.030;13.812;2023-05-06T05:04:42;100110.53;;;15.14;83.59
21730;BME280;11027;51.030;13.812;2023-05-06T05:07:07;100112.88;;;15.11;83.79
21730;BME280;11027;51.030;13.812;2023-05-06T05:09:33;100110.75;;;15.06;83.80
21730;BME280;11027;51.030;13.812;2023-05-06T05:12:03;100109.91;;;15.06;83.84
21730;BME280;11027;51.030;13.812;2023-05-06T05:14:28;100113.69;;;15.05;83.97
21730;BME280;11027;51.030;13.812;2023-05-06T05:16:53;100109.91;;;15.06;83.91
21730;BME280;11027;51.030;13.812;2023-05-06T05:19:19;100111.19;;;15.10;83.96
21730;BME280;11027;51.030;13.812;2023-05-06T05:21:45;100108.25;;;15.11;83.69
21730;BME280;11027;51.030;13.812;2023-05-06T05:24:10;100109.47;;;15.09;84.23
21730;BME280;11027;51.030;13.812;2023-05-06T05:26:35;100124.28;;;15.08;84.14
21730;BME280;11027;51.030;13.812;2023-05-06T05:29:01;100115.41;;;15.06;84.26
21730;BME280;11027;51.030;13.812;2023-05-06T05:31:26;100120.47;;;15.09;84.23
21730;BME280;11027;51.030;13.812;2023-05-06T05:33:51;100116.91;;;15.15;84.13
21730;BME280;11027;51.030;13.812;2023-05-06T05:36:16;100121.09;;;15.24;84.55
21730;BME280;11027;51.030;13.812;2023-05-06T05:38:42;100122.97;;;15.30;84.37
21730;BME280;11027;51.030;13.812;2023-05-06T05:41:07;100128.47;;;15.30;84.25
21730;BME280;11027;51.030;13.812;2023-05-06T05:43:32;100122.34;;;15.28;84.19
21730;BME280;11027;51.030;13.812;2023-05-06T05:45:57;100124.69;;;15.31;84.29
21730;BME280;11027;51.030;13.812;2023-05-06T05:48:23;100119.59;;;15.28;84.43
21730;BME280;11027;51.030;13.812;2023-05-06T05:50:48;100138.19;;;15.33;84.65
21730;BME280;11027;51.030;13.812;2023-05-06T05:53:13;100131.44;;;15.35;84.37
21730;BME280;11027;51.030;13.812;2023-05-06T05:55:38;100125.31;;;15.40;84.28
21730;BME280;11027;51.030;13.812;2023-05-06T05:58:04;100129.09;;;15.39;84.75
21730;BME280;11027;51.030;13.812;2023-05-06T06:00:29;100133.75;;;15.38;85.04
21730;BME280;11027;51.030;13.812;2023-05-06T06:02:54;100131.00;;;15.38;84.64
21730;BME280;11027;51.030;13.812;2023-05-06T06:05:20;100125.09;;;15.42;84.40
21730;BME280;11027;51.030;13.812;2023-05-06T06:07:45;100132.47;;;15.48;84.25
21730;BME280;11027;51.030;13.812;2023-05-06T06:10:11;100135.22;;;15.48;84.18
21730;BME280;11027;51.030;13.812;2023-05-06T06:12:38;100141.56;;;15.48;84.43
21730;BME280;11027;51.030;13.812;2023-05-06T06:15:03;100138.16;;;15.53;84.60
21730;BME280;11027;51.030;13.812;2023-05-06T06:17:28;100138.16;;;15.53;84.79
21730;BME280;11027;51.030;13.812;2023-05-06T06:19:54;100133.91;;;15.57;85.19
21730;BME280;11027;51.030;13.812;2023-05-06T06:22:21;100143.41;;;15.61;84.74
21730;BME280;11027;51.030;13.812;2023-05-06T06:24:46;100142.38;;;15.62;84.56
21730;BME280;11027;51.030;13.812;2023-05-06T06:27:12;100146.16;;;15.61;85.14
21730;BME280;11027;51.030;13.812;2023-05-06T06:29:37;100156.09;;;15.62;84.45
21730;BME280;11027;51.030;13.812;2023-05-06T06:32:02;100152.91;;;15.65;85.20
21730;BME280;11027;51.030;13.812;2023-05-06T06:34:28;100160.09;;;15.66;84.92
21730;BME280;11027;51.030;13.812;2023-05-06T06:36:53;100155.25;;;15.55;83.88
21730;BME280;11027;51.030;13.812;2023-05-06T06:39:18;100157.19;;;15.34;83.03
21730;BME280;11027;51.030;13.812;2023-05-06T06:41:43;100162.69;;;15.28;83.63
21730;BME280;11027;51.030;13.812;2023-05-06T06:44:09;100168.19;;;15.21;83.99
21730;BME280;11027;51.030;13.812;2023-05-06T06:46:34;100168.19;;;15.21;84.09
21730;BME280;11027;51.030;13.812;2023-05-06T06:48:59;100169.66;;;15.24;84.44
21730;BME280;11027;51.030;13.812;2023-05-06T06:51:26;100170.47;;;15.31;84.10
21730;BME280;11027;51.030;13.812;2023-05-06T06:53:51;100166.50;;;15.33;84.38
21730;BME280;11027;51.030;13.812;2023-05-06T06:56:16;100164.56;;;15.40;84.40
21730;BME280;11027;51.030;13.812;2023-05-06T06:58:42;100162.69;;;15.48;84.25
21730;BME280;11027;51.030;13.812;2023-05-06T07:01:07;100158.44;;;15.52;83.81
21730;BME280;11027;51.030;13.812;2023-05-06T07:03:32;100158.22;;;15.60;83.67
21730;BME280;11027;51.030;13.812;2023-05-06T07:05:57;100160.75;;;15.75;83.28
21730;BME280;11027;51.030;13.812;2023-05-06T07:08:23;100158.41;;;15.85;82.91
21730;BME280;11027;51.030;13.812;2023-05-06T07:10:48;100171.66;;;16.02;81.80
21730;BME280;11027;51.030;13.812;2023-05-06T07:13:13;100165.50;;;16.13;81.88
21730;BME280;11027;51.030;13.812;2023-05-06T07:15:39;100178.16;;;16.20;81.69
21730;BME280;11027;51.030;13.812;2023-05-06T07:18:04;100179.59;;;16.30;81.28
21730;BME280;11027;51.030;13.812;2023-05-06T07:20:30;100178.91;;;16.41;80.98
21730;BME280;11027;51.030;13.812;2023-05-06T07:22:55;100180.41;;;16.37;80.26
21730;BME280;11027;51.030;13.812;2023-05-06T07:25:20;100179.16;;;16.33;79.58
21730;BME280;11027;51.030;13.812;2023-05-06T07:27:46;100181.50;;;16.29;78.69
21730;BME280;11027;51.030;13.812;2023-05-06T07:30:11;100179.88;;;16.15;77.61
21730;BME280;11027;51.030;13.812;2023-05-06T07:32:37;100174.41;;;16.08;78.42
21730;BME280;11027;51.030;13.812;2023-05-06T07:35:02;100184.53;;;16.14;78.86
21730;BME280;11027;51.030;13.812;2023-05-06T07:37:28;100179.59;;;16.30;78.99
21730;BME280;11027;51.030;13.812;2023-05-06T07:39:53;100181.75;;;16.21;77.71
21730;BME280;11027;51.030;13.812;2023-05-06T07:42:18;100177.34;;;16.07;77.94
21730;BME280;11027;51.030;13.812;2023-05-06T07:44:44;100182.44;;;16.03;79.14
21730;BME280;11027;51.030;13.812;2023-05-06T07:47:09;100191.53;;;15.97;78.56
21730;BME280;11027;51.030;13.812;2023-05-06T07:49:35;100201.03;;;16.01;79.08
21730;BME280;11027;51.030;13.812;2023-05-06T07:52:00;100207.00;;;15.98;77.84
21730;BME280;11027;51.030;13.812;2023-05-06T07:54:27;100201.09;;;15.88;77.70
21730;BME280;11027;51.030;13.812;2023-05-06T07:56:52;100207.44;;;15.82;77.08
21730;BME280;11027;51.030;13.812;2023-05-06T07:59:18;100221.81;;;15.77;77.46
21730;BME280;11027;51.030;13.812;2023-05-06T08:01:43;100202.78;;;15.62;77.17
21730;BME280;11027;51.030;13.812;2023-05-06T08:04:08;100213.78;;;15.62;78.40
21730;BME280;11027;51.030;13.812;2023-05-06T08:06:33;100211.66;;;15.57;78.92
21730;BME280;11027;51.030;13.812;2023-05-06T08:08:59;100219.66;;;15.59;79.06
21730;BME280;11027;51.030;13.812;2023-05-06T08:11:24;100211.22;;;15.67;79.15
21730;BME280;11027;51.030;13.812;2023-05-06T08:13:49;100220.53;;;15.73;79.08
21730;BME280;11027;51.030;13.812;2023-05-06T08:16:15;100219.25;;;15.62;79.19
21730;BME280;11027;51.030;13.812;2023-05-06T08:18:40;100222.22;;;15.54;79.36
21730;BME280;11027;51.030;13.812;2023-05-06T08:21:05;100231.53;;;15.39;80.54
21730;BME280;11027;51.030;13.812;2023-05-06T08:23:31;100234.47;;;15.31;80.97
21730;BME280;11027;51.030;13.812;2023-05-06T08:25:56;100236.59;;;15.29;80.70
21730;BME280;11027;51.030;13.812;2023-05-06T08:28:23;100231.09;;;15.29;81.01
21730;BME280;11027;51.030;13.812;2023-05-06T08:30:48;100233.59;;;15.31;80.55
21730;BME280;11027;51.030;13.812;2023-05-06T08:33:15;100247.56;;;15.29;80.58
21730;BME280;11027;51.030;13.812;2023-05-06T08:35:40;100250.91;;;15.18;80.46
21730;BME280;11027;51.030;13.812;2023-05-06T08:38:05;100258.06;;;15.06;80.75
21730;BME280;11027;51.030;13.812;2023-05-06T08:40:31;100255.53;;;14.97;80.90
21730;BME280;11027;51.030;13.812;2023-05-06T08:42:58;100258.03;;;14.92;81.12
21730;BME280;11027;51.030;13.812;2023-05-06T08:45:23;100272.81;;;14.91;81.98
21730;BME280;11027;51.030;13.812;2023-05-06T08:47:49;100274.28;;;14.87;82.69
21730;BME280;11027;51.030;13.812;2023-05-06T08:50:14;100273.63;;;14.78;82.22
21730;BME280;11027;51.030;13.812;2023-05-06T08:52:40;100279.50;;;14.69;82.19
21730;BME280;11027;51.030;13.812;2023-05-06T08:55:06;100276.13;;;14.73;82.10
21730;BME280;11027;51.030;13.812;2023-05-06T08:57:33;100279.06;;;14.72;82.19
21730;BME280;11027;51.030;13.812;2023-05-06T08:59:58;100277.81;;;14.74;81.67
21730;BME280;11027;51.030;13.812;2023-05-06T09:02:24;100274.84;;;14.69;81.60
21730;BME280;11027;51.030;13.812;2023-05-06T09:04:53;100278.22;;;14.71;81.44
21730;BME280;11027;51.030;13.812;2023-05-06T09:07:22;100282.44;;;14.74;81.71
21730;BME280;11027;51.030;13.812;2023-05-06T09:09:50;100275.28;;;14.73;81.50
21730;BME280;11027;51.030;13.812;2023-05-06T09:12:16;100279.06;;;14.72;81.71
21730;BME280;11027;51.030;13.812;2023-05-06T09:14:41;100285.19;;;14.74;81.37
21730;BME280;11027;51.030;13.812;2023-05-06T09:17:17;100287.94;;;14.74;81.51
21730;BME280;11027;51.030;13.812;2023-05-06T09:19:48;100289.84;;;14.80;81.96
21730;BME280;11027;51.030;13.812;2023-05-06T09:22:13;100284.19;;;14.88;81.64
21730;BME280;11027;51.030;13.812;2023-05-06T09:24:38;100283.78;;;14.91;81.12
21730;BME280;11027;51.030;13.812;2023-05-06T09:27:04;100277.47;;;14.97;81.05
21730;BME280;11027;51.030;13.812;2023-05-06T09:29:29;100285.50;;;15.06;80.29
21730;BME280;11027;51.030;13.812;2023-05-06T09:31:54;100295.41;;;15.07;79.29
21730;BME280;11027;51.030;13.812;2023-05-06T09:34:20;100283.34;;;14.94;78.78
21730;BME280;11027;51.030;13.812;2023-05-06T09:36:46;100293.28;;;14.89;78.85
21730;BME280;11027;51.030;13.812;2023-05-06T09:39:11;100294.75;;;14.91;79.02
21730;BME280;11027;51.030;13.812;2023-05-06T09:41:37;100285.88;;;14.89;79.03
21730;BME280;11027;51.030;13.812;2023-05-06T09:44:02;100281.25;;;14.96;79.07
21730;BME280;11027;51.030;13.812;2023-05-06T09:46:28;100302.81;;;14.99;78.35
21730;BME280;11027;51.030;13.812;2023-05-06T09:48:55;100304.06;;;14.97;78.14
21730;BME280;11027;51.030;13.812;2023-05-06T09:51:21;100299.81;;;14.88;78.61
21730;BME280;11027;51.030;13.812;2023-05-06T09:53:47;100311.19;;;14.85;78.61
21730;BME280;11027;51.030;13.812;2023-05-06T09:56:13;100316.63;;;14.78;79.48
21730;BME280;11027;51.030;13.812;2023-05-06T09:58:39;100312.22;;;14.77;79.74
21730;BME280;11027;51.030;13.812;2023-05-06T10:01:06;100317.97;;;14.89;79.27
21730;BME280;11027;51.030;13.812;2023-05-06T10:03:33;100309.50;;;14.90;78.87
21730;BME280;11027;51.030;13.812;2023-05-06T10:06:03;100314.41;;;15.02;78.81
21730;BME280;11027;51.030;13.812;2023-05-06T10:08:33;100314.03;;;15.18;78.36
21730;BME280;11027;51.030;13.812;2023-05-06T10:11:00;100312.56;;;15.22;77.71
21730;BME280;11027;51.030;13.812;2023-05-06T10:13:26;100315.09;;;15.17;77.81
21730;BME280;11027;51.030;13.812;2023-05-06T10:15:52;100307.91;;;15.16;77.89
21730;BME280;11027;51.030;13.812;2023-05-06T10:18:21;100310.88;;;15.21;77.77
21730;BME280;11027;51.030;13.812;2023-05-06T10:20:47;100304.56;;;15.27;77.43
21730;BME280;11027;51.030;13.812;2023-05-06T10:23:24;100308.16;;;15.34;77.49
21730;BME280;11027;51.030;13.812;2023-05-06T10:25:55;100306.28;;;15.42;76.86
21730;BME280;11027;51.030;13.812;2023-05-06T10:28:21;100307.97;;;15.56;76.63
21730;BME280;11027;51.030;13.812;2023-05-06T10:30:47;100302.28;;;15.64;76.39
21730;BME280;11027;51.030;13.812;2023-05-06T10:33:14;100314.09;;;15.58;76.36
21730;BME280;11027;51.030;13.812;2023-05-06T10:38:16;100310.09;;;15.54;75.86
21730;BME280;11027;51.030;13.812;2023-05-06T10:40:43;100317.25;;;15.55;75.65
21730;BME280;11027;51.030;13.812;2023-05-06T10:43:21;100313.47;;;15.56;75.33
21730;BME280;11027;51.030;13.812;2023-05-06T10:46:13;100313.03;;;15.59;75.30
21730;BME280;11027;51.030;13.812;2023-05-06T10:51:39;100312.19;;;15.65;74.80
21730;BME280;11027;51.030;13.812;2023-05-06T10:59:13;100309.69;;;15.64;74.13
21730;BME280;11027;51.030;13.812;2023-05-06T11:01:41;100321.06;;;15.67;74.20
21730;BME280;11027;51.030;13.812;2023-05-06T11:04:17;100310.50;;;15.64;74.41
21730;BME280;11027;51.030;13.812;2023-05-06T11:06:51;100321.50;;;15.64;73.90
21730;BME280;11027;51.030;13.812;2023-05-06T11:09:26;100326.19;;;15.77;73.40
21730;BME280;11027;51.030;13.812;2023-05-06T11:12:04;100316.69;;;15.86;72.81
21730;BME280;11027;51.030;13.812;2023-05-06T11:14:33;100319.84;;;15.83;72.97
21730;BME280;11027;51.030;13.812;2023-05-06T11:17:04;100324.06;;;15.72;72.89
21730;BME280;11027;51.030;13.812;2023-05-06T11:19:31;100326.16;;;15.70;72.86
21730;BME280;11027;51.030;13.812;2023-05-06T11:21:58;100329.53;;;15.66;71.98
21730;BME280;11027;51.030;13.812;2023-05-06T11:24:29;100332.03;;;15.67;72.58
21730;BME280;11027;51.030;13.812;2023-05-06T11:26:56;100331.00;;;15.68;72.44
21730;BME280;11027;51.030;13.812;2023-05-06T11:29:22;100324.94;;;15.79;72.60
21730;BME280;11027;51.030;13.812;2023-05-06T11:31:48;100341.59;;;15.85;72.16
21730;BME280;11027;51.030;13.812;2023-05-06T11:34:22;100340.56;;;15.86;72.13
21730;BME280;11027;51.030;13.812;2023-05-06T11:36:51;100336.34;;;15.90;72.41
21730;BME280;11027;51.030;13.812;2023-05-06T11:39:16;100342.22;;;16.13;71.61
21730;BME280;11027;51.030;13.812;2023-05-06T11:41:41;100340.47;;;16.52;71.13
21730;BME280;11027;51.030;13.812;2023-05-06T11:44:07;100361.56;;;16.72;69.01
21730;BME280;11027;51.030;13.812;2023-05-06T11:46:34;100348.72;;;16.46;67.57
21730;BME280;11027;51.030;13.812;2023-05-06T11:48:59;100349.81;;;16.31;67.89
21730;BME280;11027;51.030;13.812;2023-05-06T11:51:25;100341.38;;;16.33;67.88
21730;BME280;11027;51.030;13.812;2023-05-06T11:54:05;100346.84;;;16.46;67.46
21730;BME280;11027;51.030;13.812;2023-05-06T11:56:50;100350.22;;;16.48;66.88
21730;BME280;11027;51.030;13.812;2023-05-06T11:59:17;100363.13;;;16.41;66.87
21730;BME280;11027;51.030;13.812;2023-05-06T12:01:44;100364.19;;;16.40;66.89
21730;BME280;11027;51.030;13.812;2023-05-06T12:04:10;100356.78;;;16.40;67.15
21730;BME280;11027;51.030;13.812;2023-05-06T12:06:36;100351.88;;;16.63;67.06
21730;BME280;11027;51.030;13.812;2023-05-06T12:09:03;100362.38;;;16.92;65.71
21730;BME280;11027;51.030;13.812;2023-05-06T12:11:29;100358.03;;;17.23;64.58
21730;BME280;11027;51.030;13.812;2023-05-06T12:13:55;100349.75;;;17.55;64.03
21730;BME280;11027;51.030;13.812;2023-05-06T12:16:20;100350.03;;;17.78;62.87
21730;BME280;11027;51.030;13.812;2023-05-06T12:18:47;100349.50;;;17.95;62.72
21730;BME280;11027;51.030;13.812;2023-05-06T12:21:12;100359.00;;;18.24;62.55
21730;BME280;11027;51.030;13.812;2023-05-06T12:23:49;100350.81;;;18.36;61.52
21730;BME280;11027;51.030;13.812;2023-05-06T12:26:14;100357.59;;;18.40;60.94
21730;BME280;11027;51.030;13.812;2023-05-06T12:28:40;100361.84;;;18.36;61.05
21730;BME280;11027;51.030;13.812;2023-05-06T12:31:19;100356.19;;;18.49;61.15
21730;BME280;11027;51.030;13.812;2023-05-06T12:33:46;100352.22;;;18.64;61.32
21730;BME280;11027;51.030;13.812;2023-05-06T12:36:13;100360.72;;;18.62;60.94
21730;BME280;11027;51.030;13.812;2023-05-06T12:38:49;100363.66;;;18.67;61.38
21730;BME280;11027;51.030;13.812;2023-05-06T12:41:14;100365.69;;;18.35;61.21
21730;BME280;11027;51.030;13.812;2023-05-06T12:43:40;100369.97;;;18.31;61.66
21730;BME280;11027;51.030;13.812;2023-05-06T12:46:06;100360.34;;;18.40;61.81
21730;BME280;11027;51.030;13.812;2023-05-06T12:48:32;100355.75;;;18.71;61.08
21730;BME280;11027;51.030;13.812;2023-05-06T12:50:57;100364.38;;;18.99;60.47
21730;BME280;11027;51.030;13.812;2023-05-06T12:53:33;100364.19;;;18.94;59.34
21730;BME280;11027;51.030;13.812;2023-05-06T12:55:58;100366.66;;;19.03;59.90